sensor_id;sensor_type;location;lat;lon;timestamp;P1;durP1;ratioP1;P2;durP2;ratioP2
23720;SDS011;42950;52.134;5.578;2023-11-19T00:02:11;19.67;;;8.05;;
23720;SDS011;42950;52.134;5.578;2023-11-19T00:04:37;16.67;;;7.07;;
23720;SDS011;42950;52.134;5.578;2023-11-19T00:07:06;20.00;;;7.68;;
23720;SDS011;42950;52.134;5.578;2023-11-19T00:09:35;20.30;;;7.75;;
23720;SDS011;42950;52.134;5.578;2023-11-19T00:12:02;14.80;;;7.75;;
23720;SDS011;42950;52.134;5.578;2023-11-19T00:14:29;16.05;;;7.30;;
23720;SDS011;42950;52.134;5.578;2023-11-19T00:16:55;16.08;;;7.47;;
23720;SDS011;42950;52.134;5.578;2023-11-19T00:19:20;16.50;;;7.40;;
23720;SDS011;42950;52.134;5.578;2023-11-19T00:21:46;19.67;;;7.28;;
23720;SDS011;42950;52.134;5.578;2023-11-19T00:24:12;16.00;;;6.47;;
23720;SDS011;42950;52.134;5.578;2023-11-19T00:26:38;14.77;;;6.80;;
23720;SDS011;42950;52.134;5.578;2023-11-19T00:29:03;18.70;;;6.30;;
23720;SDS011;42950;52.134;5.578;2023-11-19T00:31:29;17.70;;;6.53;;
23720;SDS011;42950;52.134;5.578;2023-11-19T00:33:55;23.88;;;6.20;;
23720;SDS011;42950;52.134;5.578;2023-11-19T00:36:20;21.92;;;6.47;;
23720;SDS011;42950;52.134;5.578;2023-11-19T00:38:46;21.85;;;6.45;;
23720;SDS011;42950;52.134;5.578;2023-11-19T00:41:11;22.98;;;5.93;;
23720;SDS011;42950;52.134;5.578;2023-11-19T00:43:37;21.55;;;6.25;;
23720;SDS011;42950;52.134;5.578;2023-11-19T00:46:03;22.05;;;5.97;;
23720;SDS011;42950;52.134;5.578;2023-11-19T00:48:31;24.35;;;6.38;;
23720;SDS011;42950;52.134;5.578;2023-11-19T00:50:57;25.52;;;6.75;;
23720;SDS011;42950;52.134;5.578;2023-11-19T00:53:22;19.42;;;5.22;;
23720;SDS011;42950;52.134;5.578;2023-11-19T00:55:48;24.20;;;5.30;;
23720;SDS011;42950;52.134;5.578;2023-11-19T00:58:14;22.38;;;5.75;;
23720;SDS011;42950;52.134;5.578;2023-11-19T01:00:39;27.02;;;5.97;;
23720;SDS011;42950;52.134;5.578;2023-11-19T01:03:05;27.13;;;5.60;;
23720;SDS011;42950;52.134;5.578;2023-11-19T01:05:32;27.02;;;5.50;;
23720;SDS011;42950;52.134;5.578;2023-11-19T01:07:58;22.77;;;5.30;;
23720;SDS011;42950;52.134;5.578;2023-11-19T01:10:23;26.67;;;5.78;;
23720;SDS011;42950;52.134;5.578;2023-11-19T01:12:50;30.65;;;5.70;;
23720;SDS011;42950;52.134;5.578;2023-11-19T01:15:17;33.13;;;5.40;;
23720;SDS011;42950;52.134;5.578;2023-11-19T01:17:44;25.27;;;5.07;;
23720;SDS011;42950;52.134;5.578;2023-11-19T01:20:10;21.98;;;4.85;;
23720;SDS011;42950;52.134;5.578;2023-11-19T01:22:38;22.10;;;4.88;;
23720;SDS011;42950;52.134;5.578;2023-11-19T01:25:04;31.50;;;5.28;;
23720;SDS011;42950;52.134;5.578;2023-11-19T01:27:30;27.33;;;5.00;;
23720;SDS011;42950;52.134;5.578;2023-11-19T01:29:56;27.58;;;5.32;;
23720;SDS011;42950;52.134;5.578;2023-11-19T01:32:21;30.65;;;5.40;;
23720;SDS011;42950;52.134;5.578;2023-11-19T01:34:48;26.77;;;5.03;;
23720;SDS011;42950;52.134;5.578;2023-11-19T01:37:14;34.28;;;6.13;;
23720;SDS011;42950;52.134;5.578;2023-11-19T01:39:40;29.65;;;5.85;;
23720;SDS011;42950;52.134;5.578;2023-11-19T01:42:08;29.65;;;6.03;;
23720;SDS011;42950;52.134;5.578;2023-11-19T01:44:33;34.13;;;5.80;;
23720;SDS011;42950;52.134;5.578;2023-11-19T01:46:59;36.22;;;5.93;;
23720;SDS011;42950;52.134;5.578;2023-11-19T01:49:25;31.42;;;5.53;;
23720;SDS011;42950;52.134;5.578;2023-11-19T01:51:51;42.47;;;6.88;;
23720;SDS011;42950;52.134;5.578;2023-11-19T01:54:17;31.88;;;5.63;;
23720;SDS011;42950;52.134;5.578;2023-11-19T01:56:42;31.02;;;5.28;;
23720;SDS011;42950;52.134;5.578;2023-11-19T01:59:09;34.22;;;5.78;;
23720;SDS011;42950;52.134;5.578;2023-11-19T02:01:36;31.13;;;5.72;;
23720;SDS011;42950;52.134;5.578;2023-11-19T02:04:04;40.53;;;6.32;;
23720;SDS011;42950;52.134;5.578;2023-11-19T02:06:32;34.45;;;6.38;;
23720;SDS011;42950;52.134;5.578;2023-11-19T02:08:59;32.20;;;5.90;;
23720;SDS011;42950;52.134;5.578;2023-11-19T02:11:25;43.30;;;7.05;;
23720;SDS011;42950;52.134;5.578;2023-11-19T02:13:54;38.63;;;6.93;;
23720;SDS011;42950;52.134;5.578;2023-11-19T02:16:21;40.58;;;6.40;;
23720;SDS011;42950;52.134;5.578;2023-11-19T02:18:46;43.10;;;6.97;;
23720;SDS011;42950;52.134;5.578;2023-11-19T02:21:13;41.85;;;6.72;;
23720;SDS011;42950;52.134;5.578;2023-11-19T02:23:40;38.30;;;6.35;;
23720;SDS011;42950;52.134;5.578;2023-11-19T02:26:13;36.42;;;6.78;;
23720;SDS011;42950;52.134;5.578;2023-11-19T02:29:03;35.88;;;6.28;;
23720;SDS011;42950;52.134;5.578;2023-11-19T02:31:29;40.25;;;7.25;;
23720;SDS011;42950;52.134;5.578;2023-11-19T02:33:54;36.05;;;5.72;;
23720;SDS011;42950;52.134;5.578;2023-11-19T02:36:20;39.70;;;6.72;;
23720;SDS011;42950;52.134;5.578;2023-11-19T02:38:46;41.08;;;7.35;;
23720;SDS011;42950;52.134;5.578;2023-11-19T02:41:13;46.15;;;7.82;;
23720;SDS011;42950;52.134;5.578;2023-11-19T02:43:39;42.42;;;6.60;;
23720;SDS011;42950;52.134;5.578;2023-11-19T02:46:05;38.00;;;7.38;;
23720;SDS011;42950;52.134;5.578;2023-11-19T02:48:37;44.00;;;6.97;;
23720;SDS011;42950;52.134;5.578;2023-11-19T02:51:03;44.92;;;6.53;;
23720;SDS011;42950;52.134;5.578;2023-11-19T02:53:29;46.70;;;7.63;;
23720;SDS011;42950;52.134;5.578;2023-11-19T02:55:55;40.22;;;6.68;;
23720;SDS011;42950;52.134;5.578;2023-11-19T02:58:27;42.20;;;7.10;;
23720;SDS011;42950;52.134;5.578;2023-11-19T03:00:53;45.50;;;7.72;;
23720;SDS011;42950;52.134;5.578;2023-11-19T03:03:23;42.55;;;7.70;;
23720;SDS011;42950;52.134;5.578;2023-11-19T03:05:53;50.10;;;7.82;;
23720;SDS011;42950;52.134;5.578;2023-11-19T03:08:20;54.90;;;8.07;;
23720;SDS011;42950;52.134;5.578;2023-11-19T03:10:45;50.75;;;8.07;;
23720;SDS011;42950;52.134;5.578;2023-11-19T03:13:12;42.95;;;7.93;;
23720;SDS011;42950;52.134;5.578;2023-11-19T03:15:39;43.75;;;7.20;;
23720;SDS011;42950;52.134;5.578;2023-11-19T03:18:05;53.90;;;7.28;;
23720;SDS011;42950;52.134;5.578;2023-11-19T03:20:31;42.83;;;7.85;;
23720;SDS011;42950;52.134;5.578;2023-11-19T03:22:57;50.25;;;7.63;;
23720;SDS011;42950;52.134;5.578;2023-11-19T03:25:26;51.13;;;8.05;;
23720;SDS011;42950;52.134;5.578;2023-11-19T03:27:58;46.55;;;8.18;;
23720;SDS011;42950;52.134;5.578;2023-11-19T03:30:24;46.80;;;7.50;;
23720;SDS011;42950;52.134;5.578;2023-11-19T03:32:50;45.22;;;7.43;;
23720;SDS011;42950;52.134;5.578;2023-11-19T03:35:15;49.95;;;8.77;;
23720;SDS011;42950;52.134;5.578;2023-11-19T03:37:41;53.13;;;8.40;;
23720;SDS011;42950;52.134;5.578;2023-11-19T03:40:07;53.92;;;8.25;;
23720;SDS011;42950;52.134;5.578;2023-11-19T03:42:33;54.92;;;8.38;;
23720;SDS011;42950;52.134;5.578;2023-11-19T03:44:58;49.35;;;7.80;;
23720;SDS011;42950;52.134;5.578;2023-11-19T03:47:24;45.72;;;8.23;;
23720;SDS011;42950;52.134;5.578;2023-11-19T03:49:50;49.28;;;8.15;;
23720;SDS011;42950;52.134;5.578;2023-11-19T03:52:16;53.25;;;7.93;;
23720;SDS011;42950;52.134;5.578;2023-11-19T03:54:43;49.15;;;7.70;;
23720;SDS011;42950;52.134;5.578;2023-11-19T03:57:08;48.05;;;7.78;;
23720;SDS011;42950;52.134;5.578;2023-11-19T03:59:38;45.50;;;7.82;;
23720;SDS011;42950;52.134;5.578;2023-11-19T04:02:04;49.45;;;7.95;;
23720;SDS011;42950;52.134;5.578;2023-11-19T04:04:31;51.92;;;7.75;;
23720;SDS011;42950;52.134;5.578;2023-11-19T04:06:57;47.90;;;7.47;;
23720;SDS011;42950;52.134;5.578;2023-11-19T04:09:25;46.67;;;7.93;;
23720;SDS011;42950;52.134;5.578;2023-11-19T04:11:51;55.97;;;8.13;;
23720;SDS011;42950;52.134;5.578;2023-11-19T04:14:17;45.50;;;7.93;;
23720;SDS011;42950;52.134;5.578;2023-11-19T04:16:43;48.83;;;7.97;;
23720;SDS011;42950;52.134;5.578;2023-11-19T04:19:12;51.17;;;8.25;;
23720;SDS011;42950;52.134;5.578;2023-11-19T04:21:41;50.03;;;7.80;;
23720;SDS011;42950;52.134;5.578;2023-11-19T04:24:08;46.38;;;8.50;;
23720;SDS011;42950;52.134;5.578;2023-11-19T04:26:39;50.47;;;7.70;;
23720;SDS011;42950;52.134;5.578;2023-11-19T04:29:11;54.03;;;8.40;;
23720;SDS011;42950;52.134;5.578;2023-11-19T04:31:42;55.97;;;8.63;;
23720;SDS011;42950;52.134;5.578;2023-11-19T04:34:08;49.47;;;7.70;;
23720;SDS011;42950;52.134;5.578;2023-11-19T04:36:33;53.75;;;8.23;;
23720;SDS011;42950;52.134;5.578;2023-11-19T04:38:59;55.33;;;8.45;;
23720;SDS011;42950;52.134;5.578;2023-11-19T04:41:26;48.53;;;7.95;;
23720;SDS011;42950;52.134;5.578;2023-11-19T04:43:55;51.33;;;8.55;;
23720;SDS011;42950;52.134;5.578;2023-11-19T04:46:20;55.58;;;8.07;;
23720;SDS011;42950;52.134;5.578;2023-11-19T04:48:46;52.28;;;8.25;;
23720;SDS011;42950;52.134;5.578;2023-11-19T04:51:12;48.00;;;7.43;;
23720;SDS011;42950;52.134;5.578;2023-11-19T04:53:38;49.47;;;8.18;;
23720;SDS011;42950;52.134;5.578;2023-11-19T04:56:10;54.90;;;9.13;;
23720;SDS011;42950;52.134;5.578;2023-11-19T04:58:36;57.38;;;8.00;;
23720;SDS011;42950;52.134;5.578;2023-11-19T05:01:02;43.25;;;7.50;;
23720;SDS011;42950;52.134;5.578;2023-11-19T05:03:29;53.85;;;9.02;;
23720;SDS011;42950;52.134;5.578;2023-11-19T05:05:57;53.95;;;8.07;;
23720;SDS011;42950;52.134;5.578;2023-11-19T05:08:23;50.30;;;8.50;;
23720;SDS011;42950;52.134;5.578;2023-11-19T05:10:49;46.22;;;7.70;;
23720;SDS011;42950;52.134;5.578;2023-11-19T05:13:14;52.58;;;8.98;;
23720;SDS011;42950;52.134;5.578;2023-11-19T05:15:40;52.78;;;8.05;;
23720;SDS011;42950;52.134;5.578;2023-11-19T05:18:06;56.00;;;8.18;;
23720;SDS011;42950;52.134;5.578;2023-11-19T05:20:31;60.00;;;8.50;;
23720;SDS011;42950;52.134;5.578;2023-11-19T05:22:57;51.72;;;8.88;;
23720;SDS011;42950;52.134;5.578;2023-11-19T05:25:25;55.47;;;8.80;;
23720;SDS011;42950;52.134;5.578;2023-11-19T05:27:51;48.50;;;7.97;;
23720;SDS011;42950;52.134;5.578;2023-11-19T05:30:17;50.65;;;8.23;;
23720;SDS011;42950;52.134;5.578;2023-11-19T05:32:43;53.10;;;8.10;;
23720;SDS011;42950;52.134;5.578;2023-11-19T05:35:08;58.05;;;8.93;;
23720;SDS011;42950;52.134;5.578;2023-11-19T05:37:34;46.80;;;6.53;;
23720;SDS011;42950;52.134;5.578;2023-11-19T05:40:00;50.97;;;7.47;;
23720;SDS011;42950;52.134;5.578;2023-11-19T05:42:28;52.75;;;8.68;;
23720;SDS011;42950;52.134;5.578;2023-11-19T05:44:53;54.33;;;8.40;;
23720;SDS011;42950;52.134;5.578;2023-11-19T05:47:19;50.67;;;8.05;;
23720;SDS011;42950;52.134;5.578;2023-11-19T05:49:44;57.03;;;8.48;;
23720;SDS011;42950;52.134;5.578;2023-11-19T05:52:10;59.28;;;9.18;;
23720;SDS011;42950;52.134;5.578;2023-11-19T05:54:37;51.25;;;8.60;;
23720;SDS011;42950;52.134;5.578;2023-11-19T05:57:04;56.15;;;9.20;;
23720;SDS011;42950;52.134;5.578;2023-11-19T05:59:30;53.85;;;8.20;;
23720;SDS011;42950;52.134;5.578;2023-11-19T06:01:57;44.55;;;7.78;;
23720;SDS011;42950;52.134;5.578;2023-11-19T06:04:22;56.13;;;9.70;;
23720;SDS011;42950;52.134;5.578;2023-11-19T06:06:48;55.63;;;8.88;;
23720;SDS011;42950;52.134;5.578;2023-11-19T06:09:14;50.58;;;8.20;;
23720;SDS011;42950;52.134;5.578;2023-11-19T06:11:39;57.20;;;8.52;;
23720;SDS011;42950;52.134;5.578;2023-11-19T06:14:05;51.80;;;8.90;;
23720;SDS011;42950;52.134;5.578;2023-11-19T06:16:32;57.90;;;8.40;;
23720;SDS011;42950;52.134;5.578;2023-11-19T06:18:57;50.22;;;8.27;;
23720;SDS011;42950;52.134;5.578;2023-11-19T06:21:23;53.15;;;8.40;;
23720;SDS011;42950;52.134;5.578;2023-11-19T06:23:49;55.10;;;8.27;;
23720;SDS011;42950;52.134;5.578;2023-11-19T06:26:17;57.20;;;8.25;;
23720;SDS011;42950;52.134;5.578;2023-11-19T06:28:43;55.47;;;8.80;;
23720;SDS011;42950;52.134;5.578;2023-11-19T06:31:09;46.95;;;7.97;;
23720;SDS011;42950;52.134;5.578;2023-11-19T06:33:34;53.10;;;8.75;;
23720;SDS011;42950;52.134;5.578;2023-11-19T06:36:00;52.17;;;8.40;;
23720;SDS011;42950;52.134;5.578;2023-11-19T06:38:25;54.65;;;8.98;;
23720;SDS011;42950;52.134;5.578;2023-11-19T06:40:51;53.67;;;8.50;;
23720;SDS011;42950;52.134;5.578;2023-11-19T06:43:16;47.80;;;7.72;;
23720;SDS011;42950;52.134;5.578;2023-11-19T06:45:42;48.38;;;7.95;;
23720;SDS011;42950;52.134;5.578;2023-11-19T06:48:08;58.15;;;9.02;;
23720;SDS011;42950;52.134;5.578;2023-11-19T06:50:34;56.08;;;8.73;;
23720;SDS011;42950;52.134;5.578;2023-11-19T06:52:59;68.80;;;9.68;;
23720;SDS011;42950;52.134;5.578;2023-11-19T06:55:26;53.08;;;8.48;;
23720;SDS011;42950;52.134;5.578;2023-11-19T06:57:52;49.38;;;7.90;;
23720;SDS011;42950;52.134;5.578;2023-11-19T07:00:17;52.67;;;8.43;;
23720;SDS011;42950;52.134;5.578;2023-11-19T07:02:43;51.50;;;8.68;;
23720;SDS011;42950;52.134;5.578;2023-11-19T07:05:09;51.10;;;7.85;;
23720;SDS011;42950;52.134;5.578;2023-11-19T07:07:34;60.60;;;9.57;;
23720;SDS011;42950;52.134;5.578;2023-11-19T07:10:00;52.22;;;9.10;;
23720;SDS011;42950;52.134;5.578;2023-11-19T07:12:27;53.42;;;8.80;;
23720;SDS011;42950;52.134;5.578;2023-11-19T07:14:52;55.30;;;8.68;;
23720;SDS011;42950;52.134;5.578;2023-11-19T07:17:20;52.83;;;8.15;;
23720;SDS011;42950;52.134;5.578;2023-11-19T07:19:49;57.35;;;9.43;;
23720;SDS011;42950;52.134;5.578;2023-11-19T07:22:15;51.13;;;8.25;;
23720;SDS011;42950;52.134;5.578;2023-11-19T07:24:40;52.47;;;8.95;;
23720;SDS011;42950;52.134;5.578;2023-11-19T07:27:07;56.40;;;8.10;;
23720;SDS011;42950;52.134;5.578;2023-11-19T07:29:33;63.05;;;8.93;;
23720;SDS011;42950;52.134;5.578;2023-11-19T07:32:00;46.97;;;8.30;;
23720;SDS011;42950;52.134;5.578;2023-11-19T07:34:27;50.65;;;8.82;;
23720;SDS011;42950;52.134;5.578;2023-11-19T07:36:54;54.72;;;8.65;;
23720;SDS011;42950;52.134;5.578;2023-11-19T07:39:22;55.55;;;8.05;;
23720;SDS011;42950;52.134;5.578;2023-11-19T07:41:48;55.60;;;7.90;;
23720;SDS011;42950;52.134;5.578;2023-11-19T07:44:14;58.47;;;8.32;;
23720;SDS011;42950;52.134;5.578;2023-11-19T07:46:39;48.78;;;7.47;;
23720;SDS011;42950;52.134;5.578;2023-11-19T07:49:07;47.90;;;7.47;;
23720;SDS011;42950;52.134;5.578;2023-11-19T07:51:32;55.92;;;7.93;;
23720;SDS011;42950;52.134;5.578;2023-11-19T07:53:58;48.50;;;8.10;;
23720;SDS011;42950;52.134;5.578;2023-11-19T07:56:23;55.78;;;8.57;;
23720;SDS011;42950;52.134;5.578;2023-11-19T07:58:49;50.63;;;7.93;;
23720;SDS011;42950;52.134;5.578;2023-11-19T08:01:15;57.00;;;8.27;;
23720;SDS011;42950;52.134;5.578;2023-11-19T08:03:41;60.97;;;9.20;;
23720;SDS011;42950;52.134;5.578;2023-11-19T08:06:06;51.72;;;8.85;;
23720;SDS011;42950;52.134;5.578;2023-11-19T08:08:32;48.90;;;8.55;;
23720;SDS011;42950;52.134;5.578;2023-11-19T08:10:59;55.15;;;9.13;;
23720;SDS011;42950;52.134;5.578;2023-11-19T08:13:25;53.08;;;8.80;;
23720;SDS011;42950;52.134;5.578;2023-11-19T08:15:51;57.58;;;8.25;;
23720;SDS011;42950;52.134;5.578;2023-11-19T08:18:17;51.08;;;8.32;;
23720;SDS011;42950;52.134;5.578;2023-11-19T08:20:43;51.25;;;8.05;;
23720;SDS011;42950;52.134;5.578;2023-11-19T08:23:09;60.08;;;8.93;;
23720;SDS011;42950;52.134;5.578;2023-11-19T08:25:35;55.92;;;9.00;;
23720;SDS011;42950;52.134;5.578;2023-11-19T08:28:01;58.53;;;8.50;;
23720;SDS011;42950;52.134;5.578;2023-11-19T08:30:28;54.38;;;8.63;;
23720;SDS011;42950;52.134;5.578;2023-11-19T08:32:54;48.05;;;8.30;;
23720;SDS011;42950;52.134;5.578;2023-11-19T08:35:19;53.80;;;8.27;;
23720;SDS011;42950;52.134;5.578;2023-11-19T08:37:45;58.10;;;8.65;;
23720;SDS011;42950;52.134;5.578;2023-11-19T08:40:11;50.70;;;7.65;;
23720;SDS011;42950;52.134;5.578;2023-11-19T08:42:39;50.70;;;8.27;;
23720;SDS011;42950;52.134;5.578;2023-11-19T08:45:05;64.43;;;9.68;;
23720;SDS011;42950;52.134;5.578;2023-11-19T08:47:31;56.40;;;8.65;;
23720;SDS011;42950;52.134;5.578;2023-11-19T08:49:56;47.40;;;8.35;;
23720;SDS011;42950;52.134;5.578;2023-11-19T08:52:22;46.05;;;7.45;;
23720;SDS011;42950;52.134;5.578;2023-11-19T08:54:47;48.97;;;8.50;;
23720;SDS011;42950;52.134;5.578;2023-11-19T08:57:13;51.47;;;8.07;;
23720;SDS011;42950;52.134;5.578;2023-11-19T08:59:38;47.50;;;8.25;;
23720;SDS011;42950;52.134;5.578;2023-11-19T09:02:05;51.67;;;8.80;;
23720;SDS011;42950;52.134;5.578;2023-11-19T09:04:30;44.15;;;8.02;;
23720;SDS011;42950;52.134;5.578;2023-11-19T09:06:57;50.15;;;7.90;;
23720;SDS011;42950;52.134;5.578;2023-11-19T09:09:23;48.67;;;7.30;;
23720;SDS011;42950;52.134;5.578;2023-11-19T09:11:49;44.75;;;7.82;;
23720;SDS011;42950;52.134;5.578;2023-11-19T09:14:14;55.20;;;7.40;;
23720;SDS011;42950;52.134;5.578;2023-11-19T09:16:40;43.50;;;7.10;;
23720;SDS011;42950;52.134;5.578;2023-11-19T09:19:06;48.17;;;7.55;;
23720;SDS011;42950;52.134;5.578;2023-11-19T09:21:31;40.97;;;6.57;;
23720;SDS011;42950;52.134;5.578;2023-11-19T09:23:59;42.72;;;7.88;;
23720;SDS011;42950;52.134;5.578;2023-11-19T09:26:25;57.88;;;7.90;;
23720;SDS011;42950;52.134;5.578;2023-11-19T09:28:50;43.53;;;8.05;;
23720;SDS011;42950;52.134;5.578;2023-11-19T09:31:16;48.40;;;7.57;;
23720;SDS011;42950;52.134;5.578;2023-11-19T09:33:42;43.30;;;7.78;;
23720;SDS011;42950;52.134;5.578;2023-11-19T09:36:08;48.97;;;7.57;;
23720;SDS011;42950;52.134;5.578;2023-11-19T09:38:35;46.70;;;7.43;;
23720;SDS011;42950;52.134;5.578;2023-11-19T09:41:03;42.22;;;7.13;;
23720;SDS011;42950;52.134;5.578;2023-11-19T09:43:33;51.33;;;8.15;;
23720;SDS011;42950;52.134;5.578;2023-11-19T09:46:01;41.53;;;7.22;;
23720;SDS011;42950;52.134;5.578;2023-11-19T09:48:32;52.80;;;7.88;;
23720;SDS011;42950;52.134;5.578;2023-11-19T09:50:58;45.08;;;7.43;;
23720;SDS011;42950;52.134;5.578;2023-11-19T09:53:25;47.00;;;8.15;;
23720;SDS011;42950;52.134;5.578;2023-11-19T09:55:51;51.33;;;7.60;;
23720;SDS011;42950;52.134;5.578;2023-11-19T09:58:17;53.90;;;8.27;;
23720;SDS011;42950;52.134;5.578;2023-11-19T10:00:43;44.22;;;7.78;;
23720;SDS011;42950;52.134;5.578;2023-11-19T10:03:09;40.00;;;6.85;;
23720;SDS011;42950;52.134;5.578;2023-11-19T10:05:37;51.40;;;7.57;;
23720;SDS011;42950;52.134;5.578;2023-11-19T10:08:04;47.92;;;7.80;;
23720;SDS011;42950;52.134;5.578;2023-11-19T10:10:30;44.08;;;6.97;;
23720;SDS011;42950;52.134;5.578;2023-11-19T10:12:55;47.55;;;7.60;;
23720;SDS011;42950;52.134;5.578;2023-11-19T10:15:21;51.40;;;7.90;;
23720;SDS011;42950;52.134;5.578;2023-11-19T10:17:49;47.67;;;7.35;;
23720;SDS011;42950;52.134;5.578;2023-11-19T10:20:16;46.03;;;8.23;;
23720;SDS011;42950;52.134;5.578;2023-11-19T10:22:41;39.67;;;7.13;;
23720;SDS011;42950;52.134;5.578;2023-11-19T10:25:23;45.47;;;7.22;;
23720;SDS011;42950;52.134;5.578;2023-11-19T10:27:52;49.95;;;6.80;;
23720;SDS011;42950;52.134;5.578;2023-11-19T10:30:22;50.65;;;8.57;;
23720;SDS011;42950;52.134;5.578;2023-11-19T10:33:09;44.65;;;7.80;;
23720;SDS011;42950;52.134;5.578;2023-11-19T10:35:36;44.58;;;8.52;;
23720;SDS011;42950;52.134;5.578;2023-11-19T10:38:19;37.53;;;6.57;;
23720;SDS011;42950;52.134;5.578;2023-11-19T10:40:45;42.22;;;6.75;;
23720;SDS011;42950;52.134;5.578;2023-11-19T10:43:11;45.40;;;8.15;;
23720;SDS011;42950;52.134;5.578;2023-11-19T10:45:37;42.65;;;7.20;;
23720;SDS011;42950;52.134;5.578;2023-11-19T10:48:04;50.10;;;7.57;;
23720;SDS011;42950;52.134;5.578;2023-11-19T10:50:36;38.88;;;6.88;;
23720;SDS011;42950;52.134;5.578;2023-11-19T10:53:05;41.58;;;7.07;;
23720;SDS011;42950;52.134;5.578;2023-11-19T10:55:34;47.15;;;7.45;;
23720;SDS011;42950;52.134;5.578;2023-11-19T10:58:08;44.10;;;8.73;;
23720;SDS011;42950;52.134;5.578;2023-11-19T11:00:44;50.67;;;7.53;;
23720;SDS011;42950;52.134;5.578;2023-11-19T11:03:18;41.55;;;6.88;;
23720;SDS011;42950;52.134;5.578;2023-11-19T11:05:49;36.85;;;6.38;;
23720;SDS011;42950;52.134;5.578;2023-11-19T11:08:16;44.53;;;7.75;;
23720;SDS011;42950;52.134;5.578;2023-11-19T11:10:43;43.08;;;7.22;;
23720;SDS011;42950;52.134;5.578;2023-11-19T11:13:10;41.42;;;7.20;;
23720;SDS011;42950;52.134;5.578;2023-11-19T11:15:37;50.03;;;7.20;;
23720;SDS011;42950;52.134;5.578;2023-11-19T11:18:03;47.17;;;7.57;;
23720;SDS011;42950;52.134;5.578;2023-11-19T11:20:32;37.78;;;7.05;;
23720;SDS011;42950;52.134;5.578;2023-11-19T11:25:42;39.00;;;7.13;;
23720;SDS011;42950;52.134;5.578;2023-11-19T11:33:41;49.55;;;7.20;;
23720;SDS011;42950;52.134;5.578;2023-11-19T11:36:22;37.75;;;7.07;;
23720;SDS011;42950;52.134;5.578;2023-11-19T11:38:49;37.85;;;6.88;;
23720;SDS011;42950;52.134;5.578;2023-11-19T11:41:24;41.22;;;7.60;;
23720;SDS011;42950;52.134;5.578;2023-11-19T11:43:53;42.63;;;7.28;;
23720;SDS011;42950;52.134;5.578;2023-11-19T11:54:09;48.33;;;7.75;;
23720;SDS011;42950;52.134;5.578;2023-11-19T11:59:45;43.08;;;8.40;;
23720;SDS011;42950;52.134;5.578;2023-11-19T12:02:12;44.55;;;7.15;;
23720;SDS011;42950;52.134;5.578;2023-11-19T12:04:41;51.63;;;8.35;;
23720;SDS011;42950;52.134;5.578;2023-11-19T12:07:20;37.63;;;7.32;;
23720;SDS011;42950;52.134;5.578;2023-11-19T12:09:48;40.00;;;6.80;;
23720;SDS011;42950;52.134;5.578;2023-11-19T12:12:26;42.47;;;7.15;;
23720;SDS011;42950;52.134;5.578;2023-11-19T12:17:43;36.28;;;6.38;;
23720;SDS011;42950;52.134;5.578;2023-11-19T12:20:17;36.80;;;6.82;;
23720;SDS011;42950;52.134;5.578;2023-11-19T12:22:44;38.65;;;6.70;;
23720;SDS011;42950;52.134;5.578;2023-11-19T12:25:12;26.00;;;4.97;;
23720;SDS011;42950;52.134;5.578;2023-11-19T12:27:42;36.15;;;5.97;;
23720;SDS011;42950;52.134;5.578;2023-11-19T12:30:19;29.92;;;5.68;;
23720;SDS011;42950;52.134;5.578;2023-11-19T12:32:50;36.08;;;6.45;;
23720;SDS011;42950;52.134;5.578;2023-11-19T12:35:18;30.75;;;5.57;;
23720;SDS011;42950;52.134;5.578;2023-11-19T12:37:44;28.52;;;5.35;;
23720;SDS011;42950;52.134;5.578;2023-11-19T12:40:18;30.73;;;5.75;;
23720;SDS011;42950;52.134;5.578;2023-11-19T12:42:49;33.80;;;5.78;;
23720;SDS011;42950;52.134;5.578;2023-11-19T12:45:18;29.30;;;5.28;;
23720;SDS011;42950;52.134;5.578;2023-11-19T12:47:46;30.80;;;5.50;;
23720;SDS011;42950;52.134;5.578;2023-11-19T12:50:16;30.27;;;5.72;;
23720;SDS011;42950;52.134;5.578;2023-11-19T12:52:57;32.95;;;5.32;;
23720;SDS011;42950;52.134;5.578;2023-11-19T12:55:23;35.85;;;6.30;;
23720;SDS011;42950;52.134;5.578;2023-11-19T12:57:51;35.53;;;5.85;;
23720;SDS011;42950;52.134;5.578;2023-11-19T13:00:20;35.75;;;5.93;;
23720;SDS011;42950;52.134;5.578;2023-11-19T13:02:54;31.02;;;6.10;;
23720;SDS011;42950;52.134;5.578;2023-11-19T13:05:24;35.47;;;5.95;;
23720;SDS011;42950;52.134;5.578;2023-11-19T13:10:25;30.70;;;5.65;;
23720;SDS011;42950;52.134;5.578;2023-11-19T13:13:04;38.13;;;6.40;;
23720;SDS011;42950;52.134;5.578;2023-11-19T13:15:32;36.47;;;6.05;;
23720;SDS011;42950;52.134;5.578;2023-11-19T13:17:58;35.85;;;6.32;;
23720;SDS011;42950;52.134;5.578;2023-11-19T13:20:25;32.28;;;5.93;;
23720;SDS011;42950;52.134;5.578;2023-11-19T13:25:22;32.95;;;6.32;;
23720;SDS011;42950;52.134;5.578;2023-11-19T13:27:48;34.30;;;6.38;;
23720;SDS011;42950;52.134;5.578;2023-11-19T13:30:14;36.38;;;6.05;;
23720;SDS011;42950;52.134;5.578;2023-11-19T13:32:40;40.03;;;6.50;;
23720;SDS011;42950;52.134;5.578;2023-11-19T13:35:05;36.78;;;6.35;;
23720;SDS011;42950;52.134;5.578;2023-11-19T13:37:33;36.45;;;6.30;;
23720;SDS011;42950;52.134;5.578;2023-11-19T13:39:59;35.85;;;5.78;;
23720;SDS011;42950;52.134;5.578;2023-11-19T13:42:25;34.70;;;6.00;;
23720;SDS011;42950;52.134;5.578;2023-11-19T13:44:51;40.78;;;7.13;;
23720;SDS011;42950;52.134;5.578;2023-11-19T13:47:16;27.27;;;6.05;;
23720;SDS011;42950;52.134;5.578;2023-11-19T13:49:44;33.83;;;5.95;;
23720;SDS011;42950;52.134;5.578;2023-11-19T13:52:10;32.55;;;6.15;;
23720;SDS011;42950;52.134;5.578;2023-11-19T13:54:36;34.40;;;6.13;;
23720;SDS011;42950;52.134;5.578;2023-11-19T13:57:02;42.45;;;5.72;;
23720;SDS011;42950;52.134;5.578;2023-11-19T13:59:29;34.03;;;6.63;;
23720;SDS011;42950;52.134;5.578;2023-11-19T14:01:56;41.50;;;6.93;;
23720;SDS011;42950;52.134;5.578;2023-11-19T14:04:21;46.20;;;7.40;;
23720;SDS011;42950;52.134;5.578;2023-11-19T14:06:47;37.50;;;6.38;;
23720;SDS011;42950;52.134;5.578;2023-11-19T14:09:13;32.92;;;6.00;;
23720;SDS011;42950;52.134;5.578;2023-11-19T14:11:38;30.08;;;6.05;;
23720;SDS011;42950;52.134;5.578;2023-11-19T14:14:04;32.60;;;5.10;;
23720;SDS011;42950;52.134;5.578;2023-11-19T14:16:29;35.67;;;6.20;;
23720;SDS011;42950;52.134;5.578;2023-11-19T14:18:56;34.55;;;6.18;;
23720;SDS011;42950;52.134;5.578;2023-11-19T14:21:21;35.40;;;6.10;;
23720;SDS011;42950;52.134;5.578;2023-11-19T14:23:47;32.00;;;5.50;;
23720;SDS011;42950;52.134;5.578;2023-11-19T14:26:13;33.00;;;6.07;;
23720;SDS011;42950;52.134;5.578;2023-11-19T14:28:38;30.98;;;5.75;;
23720;SDS011;42950;52.134;5.578;2023-11-19T14:31:04;33.08;;;6.28;;
23720;SDS011;42950;52.134;5.578;2023-11-19T14:33:30;28.42;;;5.20;;
23720;SDS011;42950;52.134;5.578;2023-11-19T14:35:55;33.13;;;6.40;;
23720;SDS011;42950;52.134;5.578;2023-11-19T14:38:21;31.17;;;5.93;;
23720;SDS011;42950;52.134;5.578;2023-11-19T14:40:46;36.28;;;6.72;;
23720;SDS011;42950;52.134;5.578;2023-11-19T14:43:13;38.22;;;6.10;;
23720;SDS011;42950;52.134;5.578;2023-11-19T14:45:41;39.05;;;6.20;;
23720;SDS011;42950;52.134;5.578;2023-11-19T14:48:07;32.05;;;5.63;;
23720;SDS011;42950;52.134;5.578;2023-11-19T14:50:32;32.97;;;6.10;;
23720;SDS011;42950;52.134;5.578;2023-11-19T14:52:58;35.95;;;6.18;;
23720;SDS011;42950;52.134;5.578;2023-11-19T14:55:23;34.47;;;5.82;;
23720;SDS011;42950;52.134;5.578;2023-11-19T14:57:49;32.08;;;5.72;;
23720;SDS011;42950;52.134;5.578;2023-11-19T15:00:16;32.70;;;5.43;;